Time;durP1;ratioP1;P1;durP2;ratioP2;P2;SDS_P1;SDS_P2;PMS_P1;PMS_P2;Temp;Humidity;BMP_temperature;BMP_pressure;BME280_temperature;BME280_humidity;BME280_pressure;Samples;Min_cycle;Max_cycle;Signal;HPM_P1;HPM_P2
2022/08/28 00:02:16;;;;;;;11.75;4.80;;;13.00;99.90;;;;;;4873065;29;20402;-68
2022/08/28 00:04:41;;;;;;;13.82;5.25;;;13.00;99.90;;;;;;4879380;29;20073;-68
2022/08/28 00:07:07;;;;;;;12.05;4.82;;;12.90;99.90;;;;;;4867800;29;20463;-69
2022/08/28 00:09:33;;;;;;;11.57;4.80;;;12.90;99.90;;;;;;4890729;29;20068;-69
2022/08/28 00:11:58;;;;;;;7.30;4.18;;;12.90;99.90;;;;;;4879565;29;20108;-68
2022/08/28 00:14:24;;;;;;;11.88;4.80;;;12.80;99.90;;;;;;4868293;29;20093;-68
2022/08/28 00:16:50;;;;;;;10.13;4.28;;;12.80;99.90;;;;;;4870709;29;20162;-69
2022/08/28 00:19:19;;;;;;;8.15;4.50;;;12.80;99.90;;;;;;4861867;29;20061;-69
2022/08/28 00:21:46;;;;;;;9.80;4.88;;;12.80;99.90;;;;;;4860782;29;20068;-69
2022/08/28 00:24:12;;;;;;;9.50;4.65;;;12.70;99.90;;;;;;4860936;29;20053;-69
2022/08/28 00:29:22;;;;;;;9.30;4.15;;;12.70;99.90;;;;;;4879890;29;20057;-68
2022/08/28 00:31:48;;;;;;;10.57;4.50;;;12.70;99.90;;;;;;4863664;29;20061;-68
2022/08/28 00:34:14;;;;;;;9.43;4.25;;;12.70;99.90;;;;;;4868033;29;20060;-68
2022/08/28 00:36:40;;;;;;;9.57;4.55;;;12.70;99.90;;;;;;4875017;29;20116;-69
2022/08/28 00:39:07;;;;;;;11.65;5.00;;;12.60;99.90;;;;;;4875600;29;20061;-68
2022/08/28 00:41:33;;;;;;;7.40;4.45;;;12.60;99.90;;;;;;4861352;29;20053;-69
2022/08/28 00:44:28;;;;;;;8.38;4.47;;;12.60;99.90;;;;;;4879756;29;20037;-69
2022/08/28 00:46:56;;;;;;;8.27;4.57;;;12.60;99.90;;;;;;4866634;29;20053;-69
2022/08/28 00:49:31;;;;;;;8.15;4.70;;;12.60;99.90;;;;;;4870402;29;20060;-68
2022/08/28 00:52:10;;;;;;;8.57;4.55;;;12.60;99.90;;;;;;4878258;29;20056;-69
2022/08/28 00:54:45;;;;;;;12.73;4.55;;;12.60;99.90;;;;;;4879844;29;20056;-68
2022/08/28 00:57:17;;;;;;;10.80;4.18;;;12.60;99.90;;;;;;4869763;29;20482;-69
2022/08/28 00:59:43;;;;;;;;;;;12.50;99.90;;;;;;4862115;29;20529;-69
2022/08/28 01:02:08;;;;;;;7.05;4.15;;;12.50;99.90;;;;;;4874002;29;19924;-68
2022/08/28 01:04:35;;;;;;;10.45;4.40;;;12.50;99.90;;;;;;4878429;29;20100;-68
2022/08/28 01:07:06;;;;;;;11.27;4.70;;;12.50;99.90;;;;;;4864462;29;20616;-68
2022/08/28 01:09:35;;;;;;;8.77;3.92;;;12.50;99.90;;;;;;4863799;29;20060;-69
2022/08/28 01:12:07;;;;;;;8.75;4.30;;;12.50;99.90;;;;;;4869978;29;20091;-69
2022/08/28 01:14:36;;;;;;;9.00;4.25;;;12.50;99.90;;;;;;4894120;29;20383;-68
2022/08/28 01:17:03;;;;;;;7.55;4.50;;;12.50;99.90;;;;;;4868752;29;20132;-68
2022/08/28 01:19:37;;;;;;;9.32;4.53;;;12.40;99.90;;;;;;4880106;29;20068;-68
2022/08/28 01:22:15;;;;;;;12.18;5.15;;;12.40;99.90;;;;;;4852344;29;20068;-68
2022/08/28 01:24:43;;;;;;;11.13;4.88;;;12.40;99.90;;;;;;4865276;29;20061;-68
2022/08/28 01:27:09;;;;;;;10.68;4.63;;;12.40;99.90;;;;;;4866388;29;20449;-68
2022/08/28 01:29:35;;;;;;;11.35;5.05;;;12.40;99.90;;;;;;4873285;29;20040;-68
2022/08/28 01:32:01;;;;;;;8.88;4.05;;;12.30;99.90;;;;;;4867786;29;20049;-68
2022/08/28 01:34:27;;;;;;;8.93;4.78;;;12.30;99.90;;;;;;4861972;29;20096;-68
2022/08/28 01:36:53;;;;;;;10.43;4.85;;;12.30;99.90;;;;;;4868046;29;20086;-69
2022/08/28 01:39:21;;;;;;;6.95;4.43;;;12.30;99.90;;;;;;4867015;29;20116;-68
2022/08/28 01:41:50;;;;;;;8.77;4.53;;;12.30;99.90;;;;;;4870070;29;20129;-68
2022/08/28 01:44:24;;;;;;;6.70;4.40;;;12.20;99.90;;;;;;4880582;29;20052;-68
2022/08/28 01:46:56;;;;;;;7.47;4.07;;;12.20;99.90;;;;;;4851393;29;20064;-68
2022/08/28 01:49:23;;;;;;;9.27;3.97;;;12.20;99.90;;;;;;4872044;29;20117;-69
2022/08/28 01:51:49;;;;;;;5.97;4.03;;;12.20;99.90;;;;;;4870392;29;20486;-68
2022/08/28 01:54:15;;;;;;;6.47;3.75;;;12.20;99.90;;;;;;4875037;29;20045;-69
2022/08/28 01:56:43;;;;;;;7.80;4.30;;;12.20;99.90;;;;;;4869595;29;20049;-68
2022/08/28 01:59:11;;;;;;;10.35;4.32;;;12.10;99.90;;;;;;4870416;29;20064;-68
2022/08/28 02:01:37;;;;;;;8.20;4.53;;;12.10;99.90;;;;;;4878036;29;20064;-69
2022/08/28 02:04:05;;;;;;;9.65;4.68;;;12.10;99.90;;;;;;4876429;29;20049;-69
2022/08/28 02:06:32;;;;;;;10.85;4.90;;;12.10;99.90;;;;;;4868167;29;20053;-68
2022/08/28 02:08:59;;;;;;;9.73;5.22;;;12.10;99.90;;;;;;4868191;29;20056;-69
2022/08/28 02:11:25;;;;;;;7.35;4.15;;;12.10;99.90;;;;;;4867706;29;20091;-69
2022/08/28 02:13:53;;;;;;;7.18;4.28;;;12.10;99.90;;;;;;4873904;29;20450;-69
2022/08/28 02:16:19;;;;;;;10.90;4.22;;;12.00;99.90;;;;;;4869172;29;20467;-69
2022/08/28 02:18:45;;;;;;;10.82;4.45;;;12.00;99.90;;;;;;4874731;29;20060;-69
2022/08/28 02:21:11;;;;;;;8.30;4.10;;;12.00;99.90;;;;;;4876629;29;20061;-69
2022/08/28 02:23:39;;;;;;;7.20;4.65;;;12.00;99.90;;;;;;4870773;29;20061;-69
2022/08/28 02:26:06;;;;;;;7.28;4.00;;;12.00;99.90;;;;;;4870620;29;20053;-68
2022/08/28 02:28:32;;;;;;;8.57;4.13;;;12.00;99.90;;;;;;4876927;29;20061;-68
2022/08/28 02:30:58;;;;;;;6.68;3.30;;;11.90;99.90;;;;;;4865820;29;20049;-68
2022/08/28 02:33:24;;;;;;;8.32;4.10;;;11.80;99.90;;;;;;4869856;29;20510;-69
2022/08/28 02:35:49;;;;;;;7.68;3.97;;;11.80;99.90;;;;;;4878680;29;20107;-69
2022/08/28 02:38:16;;;;;;;8.80;3.58;;;11.80;99.90;;;;;;4871856;29;20056;-69
2022/08/28 02:40:42;;;;;;;7.50;3.72;;;11.70;99.90;;;;;;4866226;29;20060;-69
2022/08/28 02:43:07;;;;;;;5.45;3.33;;;11.70;99.90;;;;;;4870549;29;20060;-69
2022/08/28 02:45:33;;;;;;;5.18;3.60;;;11.70;99.90;;;;;;4871365;29;20390;-69
2022/08/28 02:48:00;;;;;;;8.77;4.43;;;11.60;99.90;;;;;;4865761;29;20066;-69
2022/08/28 02:50:28;;;;;;;6.15;3.95;;;11.70;99.90;;;;;;4871679;29;20061;-69
2022/08/28 02:52:54;;;;;;;8.40;4.40;;;11.70;99.90;;;;;;4874186;29;20061;-69
2022/08/28 02:55:21;;;;;;;7.88;4.47;;;11.70;99.90;;;;;;4851474;29;20057;-69
2022/08/28 02:57:47;;;;;;;9.18;4.38;;;11.70;99.90;;;;;;4875405;29;20093;-69
2022/08/28 03:00:19;;;;;;;7.90;4.63;;;11.70;99.90;;;;;;4876996;29;20058;-69
2022/08/28 03:02:45;;;;;;;7.07;3.97;;;11.70;99.90;;;;;;4869528;29;20065;-69
2022/08/28 03:05:13;;;;;;;9.98;4.60;;;11.70;99.90;;;;;;4857580;29;20048;-69
2022/08/28 03:07:39;;;;;;;8.90;4.50;;;11.70;99.90;;;;;;4869612;29;20053;-69
2022/08/28 03:10:06;;;;;;;9.60;4.43;;;11.70;99.90;;;;;;4871298;29;20053;-69
2022/08/28 03:12:33;;;;;;;11.00;4.47;;;11.70;99.90;;;;;;4871697;29;20085;-69
2022/08/28 03:14:59;;;;;;;8.05;4.43;;;11.60;99.90;;;;;;4873488;29;20113;-68
2022/08/28 03:17:25;;;;;;;7.28;4.50;;;11.60;99.90;;;;;;4872345;29;20064;-69
2022/08/28 03:19:51;;;;;;;7.47;3.85;;;11.70;99.90;;;;;;4868518;29;20068;-69
2022/08/28 03:23:25;;;;;;;7.93;4.40;;;11.70;99.90;;;;;;4858901;29;20060;-69
2022/08/28 03:25:05;;;;;;;10.73;4.38;;;11.60;99.90;;;;;;4872180;29;20081;-69
2022/08/28 03:27:30;;;;;;;11.30;4.53;;;11.60;99.90;;;;;;4869669;29;20097;-69
2022/08/28 03:29:56;;;;;;;5.68;3.40;;;11.60;99.90;;;;;;4878379;29;20073;-69
2022/08/28 03:32:22;;;;;;;8.88;4.75;;;11.60;99.90;;;;;;4865926;29;20048;-69
2022/08/28 03:34:48;;;;;;;10.05;5.18;;;11.60;99.90;;;;;;4869738;29;20053;-69
2022/08/28 03:37:14;;;;;;;7.45;4.22;;;11.60;99.90;;;;;;4873062;29;20493;-69
2022/08/28 03:39:39;;;;;;;9.27;4.22;;;11.60;99.90;;;;;;4870380;29;20092;-69
2022/08/28 03:42:05;;;;;;;6.30;3.67;;;11.60;99.90;;;;;;4872942;29;20048;-69
2022/08/28 03:44:30;;;;;;;6.47;3.75;;;11.60;99.90;;;;;;4865030;29;20057;-69
2022/08/28 03:46:56;;;;;;;6.78;4.07;;;11.50;99.90;;;;;;4861127;29;20081;-69
2022/08/28 03:49:21;;;;;;;8.60;3.95;;;11.50;99.90;;;;;;4870823;29;20040;-69
2022/08/28 03:51:47;;;;;;;7.15;3.80;;;11.40;99.90;;;;;;4867635;29;20049;-69
2022/08/28 03:54:13;;;;;;;9.30;3.80;;;11.40;99.90;;;;;;4868821;29;20054;-69
2022/08/28 03:56:41;;;;;;;4.18;3.30;;;11.30;99.90;;;;;;4877332;29;22095;-69
2022/08/28 03:59:07;;;;;;;9.32;3.90;;;11.30;99.90;;;;;;4873733;29;20521;-69
2022/08/28 04:01:33;;;;;;;5.68;3.47;;;11.30;99.90;;;;;;4869171;29;20132;-69
2022/08/28 04:03:59;;;;;;;7.18;4.15;;;11.30;99.90;;;;;;4872728;29;20151;-69
2022/08/28 04:06:25;;;;;;;7.90;4.25;;;11.20;99.90;;;;;;4876911;29;20777;-69
2022/08/28 04:08:50;;;;;;;8.75;4.35;;;11.20;99.90;;;;;;4873642;29;20049;-69
2022/08/28 04:11:17;;;;;;;7.07;3.90;;;11.30;99.90;;;;;;4871482;29;20101;-69
2022/08/28 04:13:42;;;;;;;7.80;4.30;;;11.30;99.90;;;;;;4853965;29;20069;-69
2022/08/28 04:16:11;;;;;;;6.13;3.80;;;11.30;99.90;;;;;;4874239;29;20080;-69
2022/08/28 04:18:40;;;;;;;8.38;3.90;;;11.30;99.90;;;;;;4872389;29;20053;-69
2022/08/28 04:21:12;;;;;;;8.32;3.80;;;11.30;99.90;;;;;;4867325;29;20072;-69
2022/08/28 04:23:39;;;;;;;4.40;3.65;;;11.30;99.90;;;;;;4866285;29;20490;-69
2022/08/28 04:26:06;;;;;;;6.70;3.92;;;11.30;99.90;;;;;;4861829;29;20504;-69
2022/08/28 04:28:32;;;;;;;7.47;3.90;;;11.30;99.90;;;;;;4871812;29;20174;-69
2022/08/28 04:30:58;;;;;;;7.22;3.90;;;11.30;99.90;;;;;;4870348;29;20053;-69
2022/08/28 04:33:25;;;;;;;7.25;4.20;;;11.30;99.90;;;;;;4867097;29;20157;-69
2022/08/28 04:35:51;;;;;;;12.43;4.75;;;11.40;99.90;;;;;;4868490;29;20204;-69
2022/08/28 04:38:17;;;;;;;7.07;3.97;;;11.40;99.90;;;;;;4868960;29;20459;-68
2022/08/28 04:40:43;;;;;;;6.32;3.90;;;11.50;99.90;;;;;;4872329;29;20193;-69
2022/08/28 04:43:08;;;;;;;9.70;4.22;;;11.40;99.90;;;;;;4874770;29;20060;-69
2022/08/28 04:45:44;;;;;;;9.18;4.38;;;11.50;99.90;;;;;;4866931;29;20132;-69
2022/08/28 04:48:12;;;;;;;8.70;4.47;;;11.50;99.90;;;;;;4874157;29;20067;-69
2022/08/28 04:50:45;;;;;;;10.18;3.85;;;11.50;99.90;;;;;;4867130;29;20049;-69
2022/08/28 04:53:13;;;;;;;7.28;3.80;;;11.50;99.90;;;;;;4869150;29;20145;-68
2022/08/28 04:55:44;;;;;;;7.82;4.00;;;11.50;99.90;;;;;;4859847;29;20060;-69
2022/08/28 04:58:11;;;;;;;8.65;3.95;;;11.50;99.90;;;;;;4870416;29;20053;-69
2022/08/28 05:00:38;;;;;;;8.02;4.03;;;11.60;99.90;;;;;;4866882;29;20061;-69
2022/08/28 05:03:06;;;;;;;10.98;4.18;;;11.60;99.90;;;;;;4867129;29;20041;-69
2022/08/28 05:05:33;;;;;;;9.98;4.40;;;11.60;99.90;;;;;;4872486;29;20072;-69
2022/08/28 05:07:58;;;;;;;9.52;3.85;;;11.60;99.90;;;;;;4872391;29;20382;-69
2022/08/28 05:10:25;;;;;;;7.10;3.97;;;11.60;99.90;;;;;;4873946;29;20132;-69
2022/08/28 05:12:50;;;;;;;8.30;3.90;;;11.70;99.90;;;;;;4872760;29;20053;-69
2022/08/28 05:15:16;;;;;;;8.20;4.18;;;11.70;99.90;;;;;;4875368;29;20076;-69
2022/08/28 05:17:42;;;;;;;5.40;3.78;;;11.80;99.90;;;;;;4857026;29;20049;-69
2022/08/28 05:20:08;;;;;;;10.10;4.07;;;11.80;99.90;;;;;;4873091;29;20052;-69
2022/08/28 05:22:33;;;;;;;6.18;3.72;;;11.80;99.90;;;;;;4873426;29;20045;-69
2022/08/28 05:25:02;;;;;;;7.22;3.42;;;11.80;99.90;;;;;;4875462;29;20124;-69
2022/08/28 05:27:28;;;;;;;9.15;4.15;;;11.90;99.90;;;;;;4872643;29;20061;-69
2022/08/28 05:29:53;;;;;;;7.35;4.22;;;11.90;99.90;;;;;;4875515;29;20087;-69
2022/08/28 05:32:20;;;;;;;8.95;3.95;;;11.90;99.90;;;;;;4873942;29;20150;-69
2022/08/28 05:34:46;;;;;;;7.28;3.60;;;11.90;99.90;;;;;;4887226;29;20061;-68
2022/08/28 05:37:13;;;;;;;5.85;3.65;;;12.00;99.90;;;;;;4873761;29;20132;-68
2022/08/28 05:39:39;;;;;;;8.93;3.50;;;12.10;99.90;;;;;;4874075;29;20376;-68
2022/08/28 05:42:06;;;;;;;6.63;3.72;;;12.20;99.90;;;;;;4869348;29;20398;-68
2022/08/28 05:44:31;;;;;;;10.32;3.85;;;12.30;99.90;;;;;;4885869;29;20050;-69
2022/08/28 05:46:57;;;;;;;6.53;3.60;;;12.50;99.90;;;;;;4873983;29;20049;-68
2022/08/28 05:49:22;;;;;;;6.72;3.60;;;12.60;99.90;;;;;;4877462;29;20125;-69
2022/08/28 05:51:49;;;;;;;7.53;3.17;;;12.70;99.90;;;;;;4877841;29;20045;-68
2022/08/28 05:54:15;;;;;;;7.63;3.30;;;12.80;99.90;;;;;;4878103;29;20071;-69
2022/08/28 05:56:43;;;;;;;7.28;3.40;;;13.30;99.90;;;;;;4875226;29;20053;-68
2022/08/28 05:59:11;;;;;;;4.45;2.85;;;14.00;99.90;;;;;;4878652;29;20409;-68
2022/08/28 06:01:43;;;;;;;6.50;3.08;;;14.10;99.90;;;;;;4874918;29;20061;-69
2022/08/28 06:04:13;;;;;;;7.30;3.10;;;14.00;99.90;;;;;;4874511;29;20118;-69
2022/08/28 06:06:40;;;;;;;7.93;3.33;;;14.00;99.90;;;;;;4859381;29;20064;-69
2022/08/28 06:09:16;;;;;;;8.88;3.35;;;13.90;99.90;;;;;;4877921;29;20076;-69
2022/08/28 06:11:43;;;;;;;7.35;3.17;;;13.90;99.90;;;;;;4876726;29;20056;-69
2022/08/28 06:14:10;;;;;;;12.23;3.00;;;13.90;99.90;;;;;;4869097;29;20479;-69
2022/08/28 06:16:38;;;;;;;8.80;3.10;;;14.00;99.90;;;;;;4871220;29;20053;-70
2022/08/28 06:19:04;;;;;;;6.78;3.10;;;14.00;99.90;;;;;;4875848;29;20405;-68
2022/08/28 06:21:32;;;;;;;9.20;2.95;;;14.10;99.90;;;;;;4874379;29;20064;-69
2022/08/28 06:23:58;;;;;;;7.43;3.25;;;14.20;99.90;;;;;;4877831;29;20144;-69
2022/08/28 06:26:24;;;;;;;7.90;3.28;;;14.30;99.90;;;;;;4873071;29;20201;-69
2022/08/28 06:28:51;;;;;;;9.63;3.28;;;14.40;99.90;;;;;;4872597;29;20537;-69
2022/08/28 06:31:16;;;;;;;5.68;2.88;;;14.50;99.90;;;;;;4873725;29;20053;-68
2022/08/28 06:33:42;;;;;;;5.70;2.75;;;14.50;99.90;;;;;;4880424;29;20049;-69
2022/08/28 06:36:07;;;;;;;5.78;2.92;;;14.60;99.90;;;;;;4880584;29;20049;-69
2022/08/28 06:38:33;;;;;;;6.47;2.75;;;14.70;99.90;;;;;;4882067;29;20442;-69
2022/08/28 06:40:59;;;;;;;7.10;3.00;;;14.80;99.90;;;;;;4876627;29;20073;-69
2022/08/28 06:43:27;;;;;;;6.45;2.92;;;14.90;99.90;;;;;;4880269;29;20064;-69
2022/08/28 06:45:54;;;;;;;7.07;3.55;;;15.00;99.90;;;;;;4879654;29;20057;-69
2022/08/28 06:48:23;;;;;;;7.00;2.75;;;15.20;99.90;;;;;;4880524;29;20064;-69
2022/08/28 06:54:08;;;;;;;3.88;2.53;;;15.60;99.90;;;;;;4871571;29;20056;-69
2022/08/28 06:56:33;;;;;;;7.15;2.42;;;15.80;99.90;;;;;;4872156;29;20376;-67
2022/08/28 06:58:59;;;;;;;5.68;2.45;;;15.90;99.90;;;;;;4872011;29;20052;-70
2022/08/28 07:01:28;;;;;;;4.68;2.47;;;16.00;99.90;;;;;;4872170;29;20050;-70
2022/08/28 07:03:58;;;;;;;5.35;2.55;;;16.10;99.90;;;;;;4866564;29;20450;-70
2022/08/28 07:06:23;;;;;;;8.70;2.63;;;16.10;99.90;;;;;;4880674;29;20049;-70
2022/08/28 07:08:49;;;;;;;5.95;2.28;;;16.20;99.90;;;;;;4879648;29;20060;-70
2022/08/28 07:11:20;;;;;;;5.68;2.22;;;16.30;99.90;;;;;;4861561;29;20101;-70
2022/08/28 07:13:47;;;;;;;4.45;1.92;;;16.40;99.90;;;;;;4874070;29;20144;-70
2022/08/28 07:16:16;;;;;;;6.85;2.50;;;16.80;99.90;;;;;;4872979;29;20061;-70
2022/08/28 07:18:42;;;;;;;6.43;2.05;;;16.70;99.90;;;;;;4869483;29;20519;-70
2022/08/28 07:21:09;;;;;;;6.55;2.17;;;16.80;99.90;;;;;;4869853;29;20410;-70
2022/08/28 07:23:36;;;;;;;7.47;2.20;;;16.90;99.90;;;;;;4890429;29;20065;-69
2022/08/28 07:26:08;;;;;;;5.00;2.00;;;17.00;99.90;;;;;;4861437;29;20052;-69
2022/08/28 07:28:34;;;;;;;4.53;1.50;;;17.20;99.90;;;;;;4860399;29;20609;-69
2022/08/28 07:31:02;;;;;;;4.45;1.90;;;17.30;99.90;;;;;;4862292;29;20128;-71
2022/08/28 07:33:31;;;;;;;5.28;2.20;;;17.40;99.90;;;;;;4876366;29;20058;-71
2022/08/28 07:35:59;;;;;;;6.20;2.00;;;17.50;99.90;;;;;;4869011;29;20064;-69
2022/08/28 07:38:25;;;;;;;9.00;2.08;;;17.60;99.90;;;;;;4879484;29;20080;-69
2022/08/28 07:40:53;;;;;;;4.28;2.00;;;17.70;99.90;;;;;;4878760;29;20064;-70
2022/08/28 07:46:10;;;;;;;8.50;2.05;;;18.00;99.90;;;;;;4870219;29;20187;-70
2022/08/28 07:48:36;;;;;;;7.55;1.85;;;18.20;99.90;;;;;;4878646;29;20064;-68
2022/08/28 07:51:03;;;;;;;4.78;1.73;;;18.10;99.90;;;;;;4879030;29;20048;-68
2022/08/28 07:53:29;;;;;;;4.95;1.63;;;18.20;99.90;;;;;;4876304;29;20080;-69
2022/08/28 07:55:55;;;;;;;5.10;1.67;;;18.30;99.90;;;;;;4870097;29;20410;-69
2022/08/28 07:58:24;;;;;;;5.22;1.60;;;18.50;99.90;;;;;;4870134;29;20470;-69
2022/08/28 08:00:50;;;;;;;4.60;1.73;;;19.00;99.90;;;;;;4879857;29;20072;-70
2022/08/28 08:03:16;;;;;;;5.25;1.48;;;18.90;99.90;;;;;;4863487;29;20087;-69
2022/08/28 08:05:49;;;;;;;4.05;1.50;;;19.10;99.90;;;;;;4877898;29;20088;-69
2022/08/28 08:08:15;;;;;;;3.42;1.50;;;19.20;99.90;;;;;;4874205;29;20046;-68
2022/08/28 08:10:40;;;;;;;3.67;1.50;;;19.30;99.90;;;;;;4871662;29;20056;-67
2022/08/28 08:13:06;;;;;;;6.50;1.80;;;19.40;99.90;;;;;;4867504;29;20054;-68
2022/08/28 08:15:33;;;;;;;8.60;1.90;;;19.30;99.90;;;;;;4862736;29;20057;-68
2022/08/28 08:17:59;;;;;;;8.60;1.65;;;19.20;99.90;;;;;;4870675;29;20053;-69
2022/08/28 08:20:24;;;;;;;5.35;1.90;;;19.20;99.90;;;;;;4870720;29;20049;-69
2022/08/28 08:22:50;;;;;;;6.68;1.45;;;19.20;99.90;;;;;;4877024;29;20414;-67
2022/08/28 08:25:16;;;;;;;5.55;2.10;;;19.30;99.90;;;;;;4879477;29;20132;-67
2022/08/28 08:27:42;;;;;;;3.97;1.70;;;19.40;99.90;;;;;;4877267;29;20494;-68
2022/08/28 08:30:08;;;;;;;5.53;1.52;;;19.60;99.90;;;;;;4879768;29;20490;-69
2022/08/28 08:32:34;;;;;;;5.18;1.45;;;19.70;99.90;;;;;;4878011;29;20052;-68
2022/08/28 08:34:59;;;;;;;4.28;1.50;;;19.80;99.90;;;;;;4877211;29;20383;-69
2022/08/28 08:37:25;;;;;;;3.83;1.58;;;19.90;99.90;;;;;;4874642;29;20094;-67
2022/08/28 08:39:52;;;;;;;4.38;1.45;;;19.90;99.90;;;;;;4877424;29;20068;-67
2022/08/28 08:42:25;;;;;;;4.50;1.60;;;19.90;99.90;;;;;;4861608;29;20049;-68
2022/08/28 08:44:52;;;;;;;6.00;1.38;;;20.00;99.90;;;;;;4878403;29;20061;-68
2022/08/28 08:47:37;;;;;;;4.90;1.58;;;20.10;99.90;;;;;;4878352;29;20060;-68
2022/08/28 08:50:12;;;;;;;3.75;1.70;;;20.40;99.90;;;;;;4875254;29;20059;-68
2022/08/28 08:53:09;;;;;;;6.25;1.55;;;20.50;99.90;;;;;;4852611;29;20053;-68
2022/08/28 08:55:52;;;;;;;3.22;1.33;;;20.60;99.90;;;;;;4878118;29;20060;-68
2022/08/28 08:58:21;;;;;;;5.03;1.73;;;20.60;99.90;;;;;;4877695;29;20124;-68
2022/08/28 09:01:15;;;;;;;5.18;1.70;;;20.70;99.90;;;;;;4877808;29;20067;-68
2022/08/28 09:04:10;;;;;;;3.83;1.48;;;20.60;99.90;;;;;;4876931;29;20126;-68
2022/08/28 09:06:38;;;;;;;3.55;1.30;;;20.60;99.90;;;;;;4865594;29;20414;-69
2022/08/28 09:09:14;;;;;;;4.55;1.30;;;20.80;99.90;;;;;;4867526;29;20064;-69
2022/08/28 09:11:53;;;;;;;8.27;1.58;;;21.00;99.90;;;;;;4867716;29;20049;-68
2022/08/28 09:14:36;;;;;;;4.20;1.42;;;21.10;94.20;;;;;;4862971;29;20061;-69
2022/08/28 09:21:08;;;;;;;4.30;1.63;;;21.10;97.30;;;;;;4864739;29;20407;-69
2022/08/28 09:23:33;;;;;;;4.80;1.58;;;21.20;99.90;;;;;;4877014;29;20061;-71
2022/08/28 09:26:08;;;;;;;3.67;1.30;;;21.20;99.90;;;;;;4877272;29;20103;-69
2022/08/28 09:28:39;;;;;;;5.43;2.22;;;21.20;99.90;;;;;;4879288;29;20076;-69
2022/08/28 09:31:15;;;;;;;6.85;1.42;;;21.10;99.90;;;;;;4878257;29;20049;-70
2022/08/28 09:33:43;;;;;;;4.30;1.42;;;21.10;99.50;;;;;;4878339;29;20451;-70
2022/08/28 09:36:28;;;;;;;4.80;1.58;;;21.10;99.70;;;;;;4874264;29;20064;-67
2022/08/28 09:39:11;;;;;;;4.15;1.73;;;21.30;98.20;;;;;;4876887;29;20181;-67
2022/08/28 09:45:12;;;;;;;3.67;1.60;;;21.40;95.30;;;;;;4884555;29;20113;-67
2022/08/28 09:47:54;;;;;;;4.20;1.33;;;21.50;93.90;;;;;;4879294;29;20138;-67
2022/08/28 09:50:29;;;;;;;;;;;21.40;86.90;;;;;;4865916;29;20056;-68
2022/08/28 09:52:59;;;;;;;5.03;1.83;;;21.10;85.80;;;;;;4867959;29;20373;-68
2022/08/28 09:55:55;;;;;;;2.72;1.60;;;20.90;94.80;;;;;;4869858;29;20443;-68
2022/08/28 09:58:24;;;;;;;3.67;1.50;;;20.90;90.90;;;;;;4890018;29;20060;-68
2022/08/28 10:00:59;;;;;;;5.40;1.60;;;20.90;88.10;;;;;;4879969;29;20096;-68
2022/08/28 10:03:38;;;;;;;7.15;1.45;;;21.10;88.90;;;;;;4878423;29;20056;-68
2022/08/28 10:06:30;;;;;;;4.38;1.60;;;21.30;90.10;;;;;;4871834;29;20470;-68
2022/08/28 10:09:30;;;;;;;4.97;1.70;;;21.30;86.60;;;;;;4866076;29;20183;-68
2022/08/28 10:12:07;;;;;;;4.38;1.40;;;21.20;88.80;;;;;;4873218;29;20545;-68
2022/08/28 10:14:58;;;;;;;3.28;1.50;;;21.00;88.00;;;;;;4875372;29;20422;-68
2022/08/28 10:17:44;;;;;;;4.78;1.30;;;21.00;90.00;;;;;;4875901;29;20057;-66
2022/08/28 10:20:31;;;;;;;4.38;2.10;;;21.20;90.10;;;;;;4882594;29;20061;-68
2022/08/28 10:23:08;;;;;;;2.78;1.40;;;21.30;89.80;;;;;;4870705;29;20508;-68
2022/08/28 10:26:11;;;;;;;1.83;1.40;;;21.30;87.00;;;;;;4871573;29;20060;-68
2022/08/28 10:28:55;;;;;;;5.13;1.70;;;21.20;84.60;;;;;;4867998;29;20140;-67
2022/08/28 10:31:42;;;;;;;3.80;1.63;;;21.30;88.00;;;;;;4880769;29;20056;-66
2022/08/28 10:34:33;;;;;;;5.95;1.48;;;21.40;84.90;;;;;;4877618;29;20079;-66
2022/08/28 10:37:43;;;;;;;3.45;1.85;;;21.80;83.30;;;;;;4881360;29;20446;-67
2022/08/28 10:41:09;;;;;;;4.18;1.40;;;22.00;78.80;;;;;;4853298;29;20049;-67
2022/08/28 10:43:45;;;;;;;3.47;1.50;;;21.70;79.70;;;;;;4862730;29;20056;-67
2022/08/28 10:46:49;;;;;;;3.45;1.60;;;21.40;81.90;;;;;;4856474;29;20060;-67
2022/08/28 10:49:45;;;;;;;3.58;1.40;;;21.40;80.70;;;;;;4879967;29;20502;-67
2022/08/28 10:52:39;;;;;;;3.85;1.58;;;21.50;82.20;;;;;;4880684;29;20045;-66
2022/08/28 10:59:12;;;;;;;4.43;1.52;;;21.90;79.40;;;;;;4889874;29;20044;-67
2022/08/28 11:01:41;;;;;;;5.85;1.65;;;22.10;77.70;;;;;;4871448;29;20064;-68
2022/08/28 11:04:17;;;;;;;4.75;1.55;;;22.00;77.20;;;;;;4887410;29;20394;-67
2022/08/28 11:07:16;;;;;;;4.20;1.67;;;21.80;74.50;;;;;;4886357;29;20398;-67
2022/08/28 11:09:48;;;;;;;3.83;1.70;;;21.70;74.60;;;;;;4881387;29;20053;-67
2022/08/28 11:12:24;;;;;;;2.97;1.67;;;21.40;77.30;;;;;;4867918;29;20061;-67
2022/08/28 11:14:52;;;;;;;4.97;1.77;;;21.30;78.90;;;;;;4875670;29;20060;-66
2022/08/28 11:17:26;;;;;;;6.30;1.67;;;21.40;78.80;;;;;;4864358;29;20052;-67
2022/08/28 11:23:21;;;;;;;5.68;1.90;;;21.90;75.50;;;;;;4876194;29;20135;-68
2022/08/28 11:25:53;;;;;;;;;;;22.10;76.90;;;;;;4893625;29;20152;-66
2022/08/28 11:28:39;;;;;;;4.50;1.60;;;22.00;76.70;;;;;;4890185;29;19946;-67
2022/08/28 11:31:04;;;;;;;3.17;1.70;;;21.90;76.80;;;;;;4884341;29;20044;-67
2022/08/28 11:33:48;;;;;;;4.20;1.67;;;21.80;77.40;;;;;;4884729;29;20181;-66
2022/08/28 11:37:05;;;;;;;5.57;1.75;;;21.70;77.50;;;;;;4866944;29;20489;-67
2022/08/28 11:39:31;;;;;;;3.88;1.52;;;21.60;76.10;;;;;;4881513;29;20061;-67
2022/08/28 11:42:09;;;;;;;3.88;1.67;;;21.50;80.00;;;;;;4886020;29;20124;-67
2022/08/28 11:44:41;;;;;;;3.97;1.63;;;21.70;79.50;;;;;;4885420;29;20068;-66
2022/08/28 11:47:37;;;;;;;3.40;1.52;;;22.00;76.30;;;;;;4882431;29;20060;-67
2022/08/28 11:50:29;;;;;;;3.65;1.50;;;22.20;75.00;;;;;;4889454;29;20049;-66
2022/08/28 11:53:07;;;;;;;4.68;1.27;;;22.20;74.70;;;;;;4886807;29;20052;-66
2022/08/28 11:55:54;;;;;;;3.10;1.48;;;22.10;74.30;;;;;;4885395;29;20148;-67
2022/08/28 11:58:40;;;;;;;3.95;1.73;;;22.00;74.10;;;;;;4884290;29;20168;-67
2022/08/28 12:01:08;;;;;;;5.85;1.55;;;22.00;75.40;;;;;;4881614;29;20113;-67
2022/08/28 12:04:02;;;;;;;3.30;1.65;;;22.00;75.90;;;;;;4870183;29;20064;-68
2022/08/28 12:06:43;;;;;;;4.00;1.60;;;22.00;72.00;;;;;;4873108;29;20502;-66
2022/08/28 12:09:10;;;;;;;3.88;1.40;;;22.10;67.60;;;;;;4879250;29;20129;-66
2022/08/28 12:11:39;;;;;;;2.83;1.40;;;22.10;69.90;;;;;;4878183;29;20064;-67
2022/08/28 12:14:39;;;;;;;3.45;1.92;;;22.10;69.70;;;;;;4870317;29;20191;-67
2022/08/28 12:17:20;;;;;;;3.85;1.60;;;22.20;68.40;;;;;;4854394;29;20513;-66
2022/08/28 12:19:50;;;;;;;3.00;1.35;;;22.40;68.30;;;;;;4878850;29;20461;-66
2022/08/28 12:22:21;;;;;;;3.33;1.48;;;22.50;68.20;;;;;;4878040;29;20091;-67
2022/08/28 12:24:55;;;;;;;3.30;1.40;;;22.60;67.30;;;;;;4866174;29;20061;-67
2022/08/28 12:27:22;;;;;;;4.10;1.42;;;22.40;66.10;;;;;;4862366;29;20522;-66
2022/08/28 12:29:57;;;;;;;6.53;1.50;;;22.20;66.90;;;;;;4869562;29;20089;-66
2022/08/28 12:32:28;;;;;;;4.53;1.70;;;22.10;66.00;;;;;;4870779;29;20459;-66
2022/08/28 12:34:57;;;;;;;4.50;1.80;;;22.00;65.00;;;;;;4880071;29;20089;-67
2022/08/28 12:37:36;;;;;;;3.33;1.75;;;22.20;65.90;;;;;;4879138;29;20061;-67
2022/08/28 12:40:14;;;;;;;4.18;1.88;;;22.20;65.10;;;;;;4866311;29;20057;-67
2022/08/28 12:42:47;;;;;;;2.85;1.55;;;22.10;65.00;;;;;;4863844;29;20499;-67
2022/08/28 12:45:28;;;;;;;3.85;1.40;;;22.00;65.30;;;;;;4862564;29;20559;-67
2022/08/28 12:47:58;;;;;;;3.08;1.60;;;22.10;65.60;;;;;;4872968;29;20058;-67
2022/08/28 12:50:27;;;;;;;3.20;1.30;;;22.30;65.90;;;;;;4875911;29;20054;-67
2022/08/28 12:52:56;;;;;;;4.50;1.40;;;22.40;65.40;;;;;;4860865;29;20344;-66
2022/08/28 12:55:23;;;;;;;2.72;1.40;;;22.20;65.10;;;;;;4863818;29;20406;-67
2022/08/28 12:57:49;;;;;;;2.22;1.50;;;22.00;65.40;;;;;;4861001;29;20053;-67
2022/08/28 13:00:19;;;;;;;4.43;1.60;;;22.10;65.60;;;;;;4861171;29;20117;-66
2022/08/28 13:02:45;;;;;;;4.63;1.55;;;22.20;65.60;;;;;;4874969;29;20053;-66
2022/08/28 13:08:27;;;;;;;5.40;1.60;;;21.90;66.20;;;;;;4860486;29;20076;-66
2022/08/28 13:11:48;;;;;;;3.95;1.77;;;22.00;66.60;;;;;;4857820;29;20093;-67
2022/08/28 13:14:44;;;;;;;6.97;1.50;;;22.20;66.40;;;;;;4845956;29;20048;-66
2022/08/28 13:17:12;;;;;;;3.88;1.35;;;22.40;66.00;;;;;;4842155;29;20041;-67
2022/08/28 13:19:38;;;;;;;4.20;2.00;;;22.50;64.90;;;;;;4843111;29;20528;-66
2022/08/28 13:22:25;;;;;;;3.50;1.48;;;22.40;64.80;;;;;;4842562;29;20050;-67
2022/08/28 13:24:58;;;;;;;3.90;1.58;;;22.30;65.10;;;;;;4857649;29;20065;-67
2022/08/28 13:27:27;;;;;;;2.17;1.33;;;22.00;64.40;;;;;;4856144;29;20098;-67
2022/08/28 13:30:22;;;;;;;3.08;1.40;;;21.90;64.80;;;;;;4842199;29;20049;-68
2022/08/28 13:33:19;;;;;;;6.00;1.55;;;22.40;65.60;;;;;;4855126;29;20490;-68
2022/08/28 13:35:45;;;;;;;2.45;1.50;;;22.30;65.60;;;;;;4848114;29;20120;-68